Wilcox, Pennsylvania
Current Conditions -  °F | °C
As of 4:53 AM on Wednesday 26 Nov 2014 (Local Time) from KBFD Reporting Station
Overcast Overcast  
Wind Chill: 25°   Ceiling: 1500
Heat Index: 30°   Visibility: 10mi
Dew Point: 23°   Wind: 5mph
Humidity: 75%   Direction: 70°ENE
Pressure: 30.1"   Gusts: NA
Location:  41.58°N, 78.69°W
Report Text: KBFD 260953Z AUTO 07004KT 10SM OVC015 M01/M05 A3010 RMK AO2 SLP209 T10111050
Loading
Personal Weather Stations






























Interactive Weather Map New forecast layout! Learn more

10-Day Weather Forecast

Advertisements
Track Severe Weather on mobile